Wabaningo, Michigan
Current Conditions -  °F | °C
As of 4:55 PM on Thursday 23 Oct 2014 (Local Time) from KMKG Reporting Station
Broken Clouds Broken Clouds  
Wind Chill: 53°   Ceiling: 22000
Heat Index: 53°   Visibility: 10mi
Dew Point: 43°   Wind: 9mph
Humidity: 69%   Direction: 200°SSW
Pressure: 30.12"   Gusts: NA
Location:  43.37°N, 86.42°W
Report Text: KMKG 232055Z 20008KT 10SM SCT025 BKN220 12/06 A3012 RMK AO2 SLP205 T01170061 56020
Loading
Personal Weather Stations






























Interactive Weather Map
Tropical Storm Tracking
New forecast layout! Learn more

10-Day Weather Forecast

Advertisements
Track Severe Weather on mobile